sensor_id;sensor_type;location;lat;lon;timestamp;P1;durP1;ratioP1;P2;durP2;ratioP2
75963;SDS011;65820;44.726;37.764;2023-02-08T00:00:09;3.55;;;1.60;;
75963;SDS011;65820;44.726;37.764;2023-02-08T00:01:59;3.60;;;1.40;;
75963;SDS011;65820;44.726;37.764;2023-02-08T00:03:01;3.67;;;1.30;;
75963;SDS011;65820;44.726;37.764;2023-02-08T00:04:02;3.22;;;1.23;;
75963;SDS011;65820;44.726;37.764;2023-02-08T00:05:06;3.28;;;1.60;;
75963;SDS011;65820;44.726;37.764;2023-02-08T00:07:55;3.03;;;1.08;;
75963;SDS011;65820;44.726;37.764;2023-02-08T00:08:56;2.88;;;1.30;;
75963;SDS011;65820;44.726;37.764;2023-02-08T00:09:58;3.97;;;1.42;;
75963;SDS011;65820;44.726;37.764;2023-02-08T00:10:59;2.35;;;0.95;;
75963;SDS011;65820;44.726;37.764;2023-02-08T00:13:56;3.35;;;1.48;;
75963;SDS011;65820;44.726;37.764;2023-02-08T00:15:50;2.92;;;1.10;;
75963;SDS011;65820;44.726;37.764;2023-02-08T00:16:53;3.05;;;1.30;;
75963;SDS011;65820;44.726;37.764;2023-02-08T00:17:54;2.65;;;0.90;;
75963;SDS011;65820;44.726;37.764;2023-02-08T00:18:56;3.03;;;1.10;;
75963;SDS011;65820;44.726;37.764;2023-02-08T00:19:57;2.72;;;0.95;;
75963;SDS011;65820;44.726;37.764;2023-02-08T00:23:52;2.60;;;0.88;;
75963;SDS011;65820;44.726;37.764;2023-02-08T00:24:53;3.25;;;1.00;;
75963;SDS011;65820;44.726;37.764;2023-02-08T00:25:55;3.55;;;1.13;;
75963;SDS011;65820;44.726;37.764;2023-02-08T00:26:56;3.30;;;1.02;;
75963;SDS011;65820;44.726;37.764;2023-02-08T00:27:57;2.45;;;0.90;;
75963;SDS011;65820;44.726;37.764;2023-02-08T00:28:59;3.83;;;1.15;;
75963;SDS011;65820;44.726;37.764;2023-02-08T00:30:01;3.17;;;0.98;;
75963;SDS011;65820;44.726;37.764;2023-02-08T00:31:04;3.80;;;1.30;;
75963;SDS011;65820;44.726;37.764;2023-02-08T00:32:06;3.00;;;0.93;;
75963;SDS011;65820;44.726;37.764;2023-02-08T00:33:08;4.47;;;1.15;;
75963;SDS011;65820;44.726;37.764;2023-02-08T00:34:09;2.63;;;0.90;;
75963;SDS011;65820;44.726;37.764;2023-02-08T00:38:46;2.53;;;0.93;;
75963;SDS011;65820;44.726;37.764;2023-02-08T00:39:48;3.38;;;1.10;;
75963;SDS011;65820;44.726;37.764;2023-02-08T00:40:49;2.92;;;0.90;;
75963;SDS011;65820;44.726;37.764;2023-02-08T00:41:52;2.60;;;1.00;;
75963;SDS011;65820;44.726;37.764;2023-02-08T00:42:53;3.83;;;1.10;;
75963;SDS011;65820;44.726;37.764;2023-02-08T00:43:55;2.90;;;1.00;;
75963;SDS011;65820;44.726;37.764;2023-02-08T00:44:58;2.75;;;1.17;;
75963;SDS011;65820;44.726;37.764;2023-02-08T00:46:00;3.08;;;1.00;;
75963;SDS011;65820;44.726;37.764;2023-02-08T00:47:01;5.18;;;1.20;;
75963;SDS011;65820;44.726;37.764;2023-02-08T00:48:03;2.67;;;1.00;;
75963;SDS011;65820;44.726;37.764;2023-02-08T00:49:06;2.92;;;1.10;;
75963;SDS011;65820;44.726;37.764;2023-02-08T00:50:10;2.92;;;0.98;;
75963;SDS011;65820;44.726;37.764;2023-02-08T00:52:15;3.38;;;1.08;;
75963;SDS011;65820;44.726;37.764;2023-02-08T00:54:17;3.05;;;1.40;;
75963;SDS011;65820;44.726;37.764;2023-02-08T00:55:19;3.13;;;1.10;;
75963;SDS011;65820;44.726;37.764;2023-02-08T00:56:21;3.58;;;1.30;;
75963;SDS011;65820;44.726;37.764;2023-02-08T00:57:25;4.07;;;1.40;;
75963;SDS011;65820;44.726;37.764;2023-02-08T00:58:27;2.80;;;1.25;;
75963;SDS011;65820;44.726;37.764;2023-02-08T00:59:29;3.85;;;1.23;;
75963;SDS011;65820;44.726;37.764;2023-02-08T01:00:30;3.45;;;1.25;;
75963;SDS011;65820;44.726;37.764;2023-02-08T01:01:32;3.40;;;1.42;;
75963;SDS011;65820;44.726;37.764;2023-02-08T01:02:36;2.35;;;1.00;;
75963;SDS011;65820;44.726;37.764;2023-02-08T01:03:39;2.78;;;1.10;;
75963;SDS011;65820;44.726;37.764;2023-02-08T01:04:41;4.32;;;1.33;;
75963;SDS011;65820;44.726;37.764;2023-02-08T01:05:42;3.38;;;1.52;;
75963;SDS011;65820;44.726;37.764;2023-02-08T01:06:46;5.60;;;1.10;;
75963;SDS011;65820;44.726;37.764;2023-02-08T01:07:48;3.35;;;1.10;;
75963;SDS011;65820;44.726;37.764;2023-02-08T01:08:52;3.13;;;1.13;;
75963;SDS011;65820;44.726;37.764;2023-02-08T01:09:56;3.35;;;1.42;;
75963;SDS011;65820;44.726;37.764;2023-02-08T01:12:28;4.28;;;1.20;;
75963;SDS011;65820;44.726;37.764;2023-02-08T01:16:21;2.55;;;0.95;;
75963;SDS011;65820;44.726;37.764;2023-02-08T01:17:24;2.22;;;0.93;;
75963;SDS011;65820;44.726;37.764;2023-02-08T01:18:27;3.38;;;1.17;;
75963;SDS011;65820;44.726;37.764;2023-02-08T01:21:17;2.80;;;1.15;;
75963;SDS011;65820;44.726;37.764;2023-02-08T01:22:20;2.85;;;1.23;;
75963;SDS011;65820;44.726;37.764;2023-02-08T01:23:24;3.00;;;1.05;;
75963;SDS011;65820;44.726;37.764;2023-02-08T01:24:26;4.07;;;1.40;;
75963;SDS011;65820;44.726;37.764;2023-02-08T01:25:27;5.93;;;1.33;;
75963;SDS011;65820;44.726;37.764;2023-02-08T01:26:29;3.35;;;1.30;;
75963;SDS011;65820;44.726;37.764;2023-02-08T01:27:30;3.97;;;1.20;;
75963;SDS011;65820;44.726;37.764;2023-02-08T01:28:32;3.88;;;1.23;;
75963;SDS011;65820;44.726;37.764;2023-02-08T01:29:34;3.42;;;1.13;;
75963;SDS011;65820;44.726;37.764;2023-02-08T01:30:35;4.05;;;1.35;;
75963;SDS011;65820;44.726;37.764;2023-02-08T01:31:38;2.88;;;1.15;;
75963;SDS011;65820;44.726;37.764;2023-02-08T01:34:16;3.58;;;1.05;;
75963;SDS011;65820;44.726;37.764;2023-02-08T01:35:17;2.75;;;1.10;;
75963;SDS011;65820;44.726;37.764;2023-02-08T01:36:22;2.58;;;0.90;;
75963;SDS011;65820;44.726;37.764;2023-02-08T01:37:24;2.08;;;0.90;;
75963;SDS011;65820;44.726;37.764;2023-02-08T01:38:25;3.08;;;1.13;;
75963;SDS011;65820;44.726;37.764;2023-02-08T01:39:26;4.50;;;1.15;;
75963;SDS011;65820;44.726;37.764;2023-02-08T01:40:28;2.38;;;1.02;;
75963;SDS011;65820;44.726;37.764;2023-02-08T01:41:31;2.42;;;1.25;;
75963;SDS011;65820;44.726;37.764;2023-02-08T01:42:34;2.67;;;1.17;;
75963;SDS011;65820;44.726;37.764;2023-02-08T01:46:16;3.67;;;0.98;;
75963;SDS011;65820;44.726;37.764;2023-02-08T01:47:17;2.53;;;1.02;;
75963;SDS011;65820;44.726;37.764;2023-02-08T01:48:20;3.17;;;1.10;;
75963;SDS011;65820;44.726;37.764;2023-02-08T01:49:29;3.55;;;1.10;;
75963;SDS011;65820;44.726;37.764;2023-02-08T01:51:44;4.78;;;1.10;;
75963;SDS011;65820;44.726;37.764;2023-02-08T01:52:52;3.58;;;1.25;;
75963;SDS011;65820;44.726;37.764;2023-02-08T01:53:54;3.58;;;1.13;;
75963;SDS011;65820;44.726;37.764;2023-02-08T01:55:03;3.72;;;1.10;;
75963;SDS011;65820;44.726;37.764;2023-02-08T01:56:09;2.95;;;1.10;;
75963;SDS011;65820;44.726;37.764;2023-02-08T01:57:14;3.25;;;1.00;;
75963;SDS011;65820;44.726;37.764;2023-02-08T01:58:15;3.75;;;1.15;;
75963;SDS011;65820;44.726;37.764;2023-02-08T01:59:29;2.45;;;0.90;;
75963;SDS011;65820;44.726;37.764;2023-02-08T02:00:36;2.28;;;1.10;;
75963;SDS011;65820;44.726;37.764;2023-02-08T02:03:06;3.25;;;1.13;;
75963;SDS011;65820;44.726;37.764;2023-02-08T02:04:07;2.60;;;0.90;;
75963;SDS011;65820;44.726;37.764;2023-02-08T02:06:14;4.60;;;1.00;;
75963;SDS011;65820;44.726;37.764;2023-02-08T02:07:19;4.70;;;1.27;;
75963;SDS011;65820;44.726;37.764;2023-02-08T02:10:27;2.67;;;1.27;;
75963;SDS011;65820;44.726;37.764;2023-02-08T02:12:49;5.10;;;1.17;;
75963;SDS011;65820;44.726;37.764;2023-02-08T02:19:31;3.40;;;1.25;;
75963;SDS011;65820;44.726;37.764;2023-02-08T02:22:24;3.20;;;0.88;;
75963;SDS011;65820;44.726;37.764;2023-02-08T02:27:39;3.17;;;1.10;;
75963;SDS011;65820;44.726;37.764;2023-02-08T02:38:59;2.78;;;1.25;;
75963;SDS011;65820;44.726;37.764;2023-02-08T02:41:54;3.17;;;1.30;;
75963;SDS011;65820;44.726;37.764;2023-02-08T02:43:25;3.45;;;1.17;;
75963;SDS011;65820;44.726;37.764;2023-02-08T02:47:09;3.25;;;1.20;;
75963;SDS011;65820;44.726;37.764;2023-02-08T02:49:49;2.67;;;1.08;;
75963;SDS011;65820;44.726;37.764;2023-02-08T02:50:55;3.30;;;1.33;;
75963;SDS011;65820;44.726;37.764;2023-02-08T02:53:23;4.22;;;1.10;;
75963;SDS011;65820;44.726;37.764;2023-02-08T02:54:57;3.75;;;1.20;;
75963;SDS011;65820;44.726;37.764;2023-02-08T02:56:06;3.08;;;1.10;;
75963;SDS011;65820;44.726;37.764;2023-02-08T02:57:13;4.43;;;1.60;;
75963;SDS011;65820;44.726;37.764;2023-02-08T02:58:19;2.47;;;1.17;;
75963;SDS011;65820;44.726;37.764;2023-02-08T02:59:22;3.60;;;1.08;;
75963;SDS011;65820;44.726;37.764;2023-02-08T03:00:26;3.55;;;1.20;;
75963;SDS011;65820;44.726;37.764;2023-02-08T03:01:30;2.25;;;1.10;;
75963;SDS011;65820;44.726;37.764;2023-02-08T03:02:32;2.90;;;1.20;;
75963;SDS011;65820;44.726;37.764;2023-02-08T03:03:34;3.35;;;1.05;;
75963;SDS011;65820;44.726;37.764;2023-02-08T03:05:39;3.45;;;1.52;;
75963;SDS011;65820;44.726;37.764;2023-02-08T03:08:16;3.75;;;1.23;;
75963;SDS011;65820;44.726;37.764;2023-02-08T03:13:30;2.25;;;1.15;;
75963;SDS011;65820;44.726;37.764;2023-02-08T03:21:26;3.47;;;1.17;;
75963;SDS011;65820;44.726;37.764;2023-02-08T03:22:42;2.75;;;1.08;;
75963;SDS011;65820;44.726;37.764;2023-02-08T03:24:00;4.10;;;1.15;;
75963;SDS011;65820;44.726;37.764;2023-02-08T03:25:23;2.75;;;1.10;;
75963;SDS011;65820;44.726;37.764;2023-02-08T03:32:16;2.53;;;1.00;;
75963;SDS011;65820;44.726;37.764;2023-02-08T03:34:04;3.40;;;0.98;;
75963;SDS011;65820;44.726;37.764;2023-02-08T03:37:29;2.65;;;0.90;;
75963;SDS011;65820;44.726;37.764;2023-02-08T03:38:42;3.17;;;1.17;;
75963;SDS011;65820;44.726;37.764;2023-02-08T03:43:34;2.88;;;1.30;;
75963;SDS011;65820;44.726;37.764;2023-02-08T03:44:47;3.10;;;1.30;;
75963;SDS011;65820;44.726;37.764;2023-02-08T03:51:09;2.70;;;0.90;;
75963;SDS011;65820;44.726;37.764;2023-02-08T03:52:10;3.72;;;1.20;;
75963;SDS011;65820;44.726;37.764;2023-02-08T03:53:12;4.25;;;0.98;;
75963;SDS011;65820;44.726;37.764;2023-02-08T03:56:54;2.55;;;0.93;;
75963;SDS011;65820;44.726;37.764;2023-02-08T03:58:38;2.00;;;0.85;;
75963;SDS011;65820;44.726;37.764;2023-02-08T03:59:30;3.40;;;1.10;;
75963;SDS011;65820;44.726;37.764;2023-02-08T04:00:39;2.92;;;0.93;;
75963;SDS011;65820;44.726;37.764;2023-02-08T04:01:45;2.40;;;0.90;;
75963;SDS011;65820;44.726;37.764;2023-02-08T04:02:55;3.65;;;1.20;;
75963;SDS011;65820;44.726;37.764;2023-02-08T04:05:12;2.65;;;1.00;;
75963;SDS011;65820;44.726;37.764;2023-02-08T04:06:14;2.50;;;0.90;;
75963;SDS011;65820;44.726;37.764;2023-02-08T04:07:17;2.95;;;1.08;;
75963;SDS011;65820;44.726;37.764;2023-02-08T04:08:19;2.85;;;1.10;;
75963;SDS011;65820;44.726;37.764;2023-02-08T04:09:21;3.10;;;1.00;;
75963;SDS011;65820;44.726;37.764;2023-02-08T04:11:41;3.60;;;1.00;;
75963;SDS011;65820;44.726;37.764;2023-02-08T04:14:22;4.05;;;1.30;;
75963;SDS011;65820;44.726;37.764;2023-02-08T04:15:23;3.80;;;1.27;;
75963;SDS011;65820;44.726;37.764;2023-02-08T04:16:27;3.72;;;1.30;;
75963;SDS011;65820;44.726;37.764;2023-02-08T04:17:30;3.63;;;1.23;;
75963;SDS011;65820;44.726;37.764;2023-02-08T04:18:32;3.72;;;1.50;;
75963;SDS011;65820;44.726;37.764;2023-02-08T04:19:33;3.03;;;1.30;;
75963;SDS011;65820;44.726;37.764;2023-02-08T04:20:35;3.60;;;1.42;;
75963;SDS011;65820;44.726;37.764;2023-02-08T04:21:36;4.82;;;1.55;;
75963;SDS011;65820;44.726;37.764;2023-02-08T04:22:38;4.13;;;1.30;;
75963;SDS011;65820;44.726;37.764;2023-02-08T04:24:50;3.75;;;1.60;;
75963;SDS011;65820;44.726;37.764;2023-02-08T04:28:01;4.35;;;1.48;;
75963;SDS011;65820;44.726;37.764;2023-02-08T04:29:03;4.47;;;1.33;;
75963;SDS011;65820;44.726;37.764;2023-02-08T04:30:04;3.58;;;1.45;;
75963;SDS011;65820;44.726;37.764;2023-02-08T04:31:06;4.30;;;1.67;;
75963;SDS011;65820;44.726;37.764;2023-02-08T04:33:56;4.28;;;1.38;;
75963;SDS011;65820;44.726;37.764;2023-02-08T04:36:15;4.40;;;1.58;;
75963;SDS011;65820;44.726;37.764;2023-02-08T04:43:41;4.43;;;1.42;;
75963;SDS011;65820;44.726;37.764;2023-02-08T04:44:42;4.78;;;1.67;;
75963;SDS011;65820;44.726;37.764;2023-02-08T04:45:45;3.67;;;1.38;;
75963;SDS011;65820;44.726;37.764;2023-02-08T04:46:49;4.90;;;1.48;;
75963;SDS011;65820;44.726;37.764;2023-02-08T04:47:50;4.07;;;1.52;;
75963;SDS011;65820;44.726;37.764;2023-02-08T04:49:49;4.35;;;1.45;;
75963;SDS011;65820;44.726;37.764;2023-02-08T04:50:53;3.63;;;1.40;;
75963;SDS011;65820;44.726;37.764;2023-02-08T04:51:56;4.90;;;1.55;;
75963;SDS011;65820;44.726;37.764;2023-02-08T04:52:57;4.53;;;1.38;;
75963;SDS011;65820;44.726;37.764;2023-02-08T04:53:58;4.10;;;1.40;;
75963;SDS011;65820;44.726;37.764;2023-02-08T04:55:00;3.75;;;1.60;;
75963;SDS011;65820;44.726;37.764;2023-02-08T04:56:01;4.43;;;1.30;;
75963;SDS011;65820;44.726;37.764;2023-02-08T04:57:02;3.28;;;1.20;;
75963;SDS011;65820;44.726;37.764;2023-02-08T04:58:04;3.58;;;1.20;;
75963;SDS011;65820;44.726;37.764;2023-02-08T04:59:05;4.57;;;1.55;;
75963;SDS011;65820;44.726;37.764;2023-02-08T05:00:07;3.63;;;1.70;;
75963;SDS011;65820;44.726;37.764;2023-02-08T05:01:09;5.38;;;1.60;;
75963;SDS011;65820;44.726;37.764;2023-02-08T05:02:15;4.22;;;1.30;;
75963;SDS011;65820;44.726;37.764;2023-02-08T05:03:17;3.90;;;1.33;;
75963;SDS011;65820;44.726;37.764;2023-02-08T05:04:18;5.25;;;1.38;;
75963;SDS011;65820;44.726;37.764;2023-02-08T05:05:20;3.55;;;1.40;;
75963;SDS011;65820;44.726;37.764;2023-02-08T05:06:21;5.38;;;1.90;;
75963;SDS011;65820;44.726;37.764;2023-02-08T05:07:22;5.63;;;1.63;;
75963;SDS011;65820;44.726;37.764;2023-02-08T05:08:24;6.95;;;1.20;;
75963;SDS011;65820;44.726;37.764;2023-02-08T05:09:25;4.10;;;1.98;;
75963;SDS011;65820;44.726;37.764;2023-02-08T05:10:27;3.05;;;1.30;;
75963;SDS011;65820;44.726;37.764;2023-02-08T05:11:28;4.00;;;1.60;;
75963;SDS011;65820;44.726;37.764;2023-02-08T05:12:30;4.65;;;1.60;;
75963;SDS011;65820;44.726;37.764;2023-02-08T05:13:31;3.88;;;1.40;;
75963;SDS011;65820;44.726;37.764;2023-02-08T05:14:33;4.65;;;1.60;;
75963;SDS011;65820;44.726;37.764;2023-02-08T05:15:34;4.95;;;1.58;;
75963;SDS011;65820;44.726;37.764;2023-02-08T05:16:35;3.67;;;1.60;;
75963;SDS011;65820;44.726;37.764;2023-02-08T05:18:25;4.22;;;1.80;;
75963;SDS011;65820;44.726;37.764;2023-02-08T05:20:56;4.13;;;1.70;;
75963;SDS011;65820;44.726;37.764;2023-02-08T05:21:58;3.25;;;1.60;;
75963;SDS011;65820;44.726;37.764;2023-02-08T05:23:00;4.25;;;1.73;;
75963;SDS011;65820;44.726;37.764;2023-02-08T05:24:01;3.58;;;1.67;;
75963;SDS011;65820;44.726;37.764;2023-02-08T05:25:02;3.90;;;1.42;;
75963;SDS011;65820;44.726;37.764;2023-02-08T05:26:07;3.70;;;1.60;;
75963;SDS011;65820;44.726;37.764;2023-02-08T05:28:42;4.15;;;1.50;;
75963;SDS011;65820;44.726;37.764;2023-02-08T05:29:43;3.45;;;1.20;;
75963;SDS011;65820;44.726;37.764;2023-02-08T05:30:45;3.75;;;1.38;;
75963;SDS011;65820;44.726;37.764;2023-02-08T05:31:47;2.95;;;1.10;;
75963;SDS011;65820;44.726;37.764;2023-02-08T05:32:48;2.95;;;1.20;;
75963;SDS011;65820;44.726;37.764;2023-02-08T05:33:50;4.88;;;1.35;;
75963;SDS011;65820;44.726;37.764;2023-02-08T05:34:52;3.85;;;1.45;;
75963;SDS011;65820;44.726;37.764;2023-02-08T05:35:54;3.53;;;1.25;;
75963;SDS011;65820;44.726;37.764;2023-02-08T05:36:55;3.50;;;1.35;;
75963;SDS011;65820;44.726;37.764;2023-02-08T05:38:59;3.25;;;1.33;;
75963;SDS011;65820;44.726;37.764;2023-02-08T05:40:49;3.13;;;1.50;;
75963;SDS011;65820;44.726;37.764;2023-02-08T05:41:50;2.92;;;1.35;;
75963;SDS011;65820;44.726;37.764;2023-02-08T05:42:52;3.40;;;1.23;;
75963;SDS011;65820;44.726;37.764;2023-02-08T05:43:53;3.72;;;1.35;;
75963;SDS011;65820;44.726;37.764;2023-02-08T05:44:54;5.10;;;1.35;;
75963;SDS011;65820;44.726;37.764;2023-02-08T05:45:58;2.40;;;1.23;;
75963;SDS011;65820;44.726;37.764;2023-02-08T05:50:04;3.28;;;1.08;;
75963;SDS011;65820;44.726;37.764;2023-02-08T05:51:06;1.80;;;0.80;;
75963;SDS011;65820;44.726;37.764;2023-02-08T05:52:07;3.90;;;1.27;;
75963;SDS011;65820;44.726;37.764;2023-02-08T05:53:09;3.05;;;1.10;;
75963;SDS011;65820;44.726;37.764;2023-02-08T05:55:35;2.85;;;1.20;;
75963;SDS011;65820;44.726;37.764;2023-02-08T05:56:37;3.65;;;1.23;;
75963;SDS011;65820;44.726;37.764;2023-02-08T05:57:38;3.42;;;1.30;;
75963;SDS011;65820;44.726;37.764;2023-02-08T05:58:40;1.63;;;0.70;;
75963;SDS011;65820;44.726;37.764;2023-02-08T06:01:11;4.22;;;1.05;;
75963;SDS011;65820;44.726;37.764;2023-02-08T06:03:08;2.75;;;1.02;;
75963;SDS011;65820;44.726;37.764;2023-02-08T06:04:10;2.72;;;0.98;;
75963;SDS011;65820;44.726;37.764;2023-02-08T06:05:11;3.22;;;1.48;;
75963;SDS011;65820;44.726;37.764;2023-02-08T06:06:13;4.60;;;1.38;;
75963;SDS011;65820;44.726;37.764;2023-02-08T06:07:14;3.42;;;1.23;;
75963;SDS011;65820;44.726;37.764;2023-02-08T06:08:15;3.17;;;1.40;;
75963;SDS011;65820;44.726;37.764;2023-02-08T06:09:17;1.83;;;0.98;;
75963;SDS011;65820;44.726;37.764;2023-02-08T06:10:18;2.88;;;0.93;;
75963;SDS011;65820;44.726;37.764;2023-02-08T06:11:20;2.97;;;1.30;;
75963;SDS011;65820;44.726;37.764;2023-02-08T06:12:21;3.90;;;1.17;;
75963;SDS011;65820;44.726;37.764;2023-02-08T06:13:22;2.20;;;1.25;;
75963;SDS011;65820;44.726;37.764;2023-02-08T06:14:24;2.53;;;1.08;;
75963;SDS011;65820;44.726;37.764;2023-02-08T06:15:25;2.85;;;1.00;;
75963;SDS011;65820;44.726;37.764;2023-02-08T06:16:27;2.22;;;1.08;;
75963;SDS011;65820;44.726;37.764;2023-02-08T06:17:29;3.75;;;1.30;;
75963;SDS011;65820;44.726;37.764;2023-02-08T06:18:30;3.33;;;1.23;;
75963;SDS011;65820;44.726;37.764;2023-02-08T06:19:31;2.55;;;1.13;;
75963;SDS011;65820;44.726;37.764;2023-02-08T06:20:33;2.00;;;1.00;;
75963;SDS011;65820;44.726;37.764;2023-02-08T06:21:35;2.63;;;1.08;;
75963;SDS011;65820;44.726;37.764;2023-02-08T06:22:36;3.28;;;1.15;;
75963;SDS011;65820;44.726;37.764;2023-02-08T06:23:37;3.90;;;1.17;;
75963;SDS011;65820;44.726;37.764;2023-02-08T06:24:39;2.80;;;1.23;;
75963;SDS011;65820;44.726;37.764;2023-02-08T06:25:40;2.45;;;0.93;;
75963;SDS011;65820;44.726;37.764;2023-02-08T06:26:42;2.95;;;1.20;;
75963;SDS011;65820;44.726;37.764;2023-02-08T06:27:44;4.30;;;1.15;;
75963;SDS011;65820;44.726;37.764;2023-02-08T06:28:47;3.15;;;1.02;;
75963;SDS011;65820;44.726;37.764;2023-02-08T06:29:49;2.85;;;1.15;;
75963;SDS011;65820;44.726;37.764;2023-02-08T06:30:50;2.88;;;1.00;;
75963;SDS011;65820;44.726;37.764;2023-02-08T06:31:52;2.78;;;1.10;;
75963;SDS011;65820;44.726;37.764;2023-02-08T06:32:53;3.20;;;1.40;;
75963;SDS011;65820;44.726;37.764;2023-02-08T06:33:54;2.97;;;1.15;;
75963;SDS011;65820;44.726;37.764;2023-02-08T06:34:56;2.25;;;1.00;;
75963;SDS011;65820;44.726;37.764;2023-02-08T06:35:58;2.83;;;1.30;;
75963;SDS011;65820;44.726;37.764;2023-02-08T06:36:59;3.85;;;1.20;;
75963;SDS011;65820;44.726;37.764;2023-02-08T06:38:02;2.35;;;0.95;;
75963;SDS011;65820;44.726;37.764;2023-02-08T06:39:03;2.92;;;1.13;;
75963;SDS011;65820;44.726;37.764;2023-02-08T06:40:07;3.28;;;1.13;;
75963;SDS011;65820;44.726;37.764;2023-02-08T06:41:10;2.72;;;0.90;;
75963;SDS011;65820;44.726;37.764;2023-02-08T06:42:11;2.30;;;1.23;;
75963;SDS011;65820;44.726;37.764;2023-02-08T06:43:13;2.40;;;1.05;;
75963;SDS011;65820;44.726;37.764;2023-02-08T06:44:15;2.38;;;1.10;;
75963;SDS011;65820;44.726;37.764;2023-02-08T06:45:16;2.85;;;1.05;;
75963;SDS011;65820;44.726;37.764;2023-02-08T06:46:18;2.55;;;1.23;;
75963;SDS011;65820;44.726;37.764;2023-02-08T06:47:22;1.50;;;1.00;;
75963;SDS011;65820;44.726;37.764;2023-02-08T06:49:26;2.72;;;1.00;;
75963;SDS011;65820;44.726;37.764;2023-02-08T06:50:28;1.88;;;0.98;;
75963;SDS011;65820;44.726;37.764;2023-02-08T06:51:29;3.25;;;1.20;;
75963;SDS011;65820;44.726;37.764;2023-02-08T06:52:30;2.45;;;0.95;;
75963;SDS011;65820;44.726;37.764;2023-02-08T06:53:32;2.22;;;0.90;;
75963;SDS011;65820;44.726;37.764;2023-02-08T06:54:33;2.40;;;1.10;;
75963;SDS011;65820;44.726;37.764;2023-02-08T06:55:35;2.60;;;0.90;;
75963;SDS011;65820;44.726;37.764;2023-02-08T06:56:36;2.45;;;1.02;;
75963;SDS011;65820;44.726;37.764;2023-02-08T06:57:38;2.40;;;1.08;;
75963;SDS011;65820;44.726;37.764;2023-02-08T06:58:39;2.40;;;1.10;;
75963;SDS011;65820;44.726;37.764;2023-02-08T06:59:40;2.47;;;1.05;;
75963;SDS011;65820;44.726;37.764;2023-02-08T07:00:42;2.72;;;1.13;;
75963;SDS011;65820;44.726;37.764;2023-02-08T07:01:47;3.60;;;1.33;;
75963;SDS011;65820;44.726;37.764;2023-02-08T07:04:36;3.10;;;1.02;;
75963;SDS011;65820;44.726;37.764;2023-02-08T07:05:37;3.53;;;1.30;;
75963;SDS011;65820;44.726;37.764;2023-02-08T07:06:48;3.25;;;0.98;;
75963;SDS011;65820;44.726;37.764;2023-02-08T07:07:52;4.13;;;1.20;;
75963;SDS011;65820;44.726;37.764;2023-02-08T07:08:54;3.00;;;1.02;;
75963;SDS011;65820;44.726;37.764;2023-02-08T07:09:55;2.83;;;1.13;;
75963;SDS011;65820;44.726;37.764;2023-02-08T07:10:56;2.28;;;1.00;;
75963;SDS011;65820;44.726;37.764;2023-02-08T07:11:58;3.05;;;1.20;;
75963;SDS011;65820;44.726;37.764;2023-02-08T07:13:01;2.63;;;0.82;;
75963;SDS011;65820;44.726;37.764;2023-02-08T07:14:03;3.25;;;1.00;;
75963;SDS011;65820;44.726;37.764;2023-02-08T07:15:05;1.95;;;1.00;;
75963;SDS011;65820;44.726;37.764;2023-02-08T07:16:07;1.95;;;0.90;;
75963;SDS011;65820;44.726;37.764;2023-02-08T07:17:09;2.72;;;1.15;;
75963;SDS011;65820;44.726;37.764;2023-02-08T07:18:11;2.67;;;1.25;;
75963;SDS011;65820;44.726;37.764;2023-02-08T07:19:15;3.50;;;1.30;;
75963;SDS011;65820;44.726;37.764;2023-02-08T07:20:17;2.92;;;0.90;;
75963;SDS011;65820;44.726;37.764;2023-02-08T07:21:21;1.50;;;0.82;;
75963;SDS011;65820;44.726;37.764;2023-02-08T07:22:23;2.85;;;0.93;;
75963;SDS011;65820;44.726;37.764;2023-02-08T07:23:24;4.25;;;1.08;;
75963;SDS011;65820;44.726;37.764;2023-02-08T07:24:26;2.03;;;0.90;;
75963;SDS011;65820;44.726;37.764;2023-02-08T07:25:27;2.35;;;1.02;;
75963;SDS011;65820;44.726;37.764;2023-02-08T07:26:29;3.88;;;1.27;;
75963;SDS011;65820;44.726;37.764;2023-02-08T07:27:30;2.47;;;1.10;;
75963;SDS011;65820;44.726;37.764;2023-02-08T07:28:31;3.08;;;1.40;;
75963;SDS011;65820;44.726;37.764;2023-02-08T07:29:33;2.97;;;1.35;;
75963;SDS011;65820;44.726;37.764;2023-02-08T07:30:35;3.17;;;1.20;;
75963;SDS011;65820;44.726;37.764;2023-02-08T07:31:37;4.45;;;1.40;;
75963;SDS011;65820;44.726;37.764;2023-02-08T07:32:38;5.35;;;1.95;;
75963;SDS011;65820;44.726;37.764;2023-02-08T07:33:39;4.90;;;2.03;;
75963;SDS011;65820;44.726;37.764;2023-02-08T07:34:43;6.22;;;2.30;;
75963;SDS011;65820;44.726;37.764;2023-02-08T07:35:46;5.22;;;2.60;;
75963;SDS011;65820;44.726;37.764;2023-02-08T07:36:47;4.60;;;2.03;;
75963;SDS011;65820;44.726;37.764;2023-02-08T07:37:49;4.10;;;1.70;;
75963;SDS011;65820;44.726;37.764;2023-02-08T07:38:50;6.35;;;1.90;;
75963;SDS011;65820;44.726;37.764;2023-02-08T07:39:52;6.28;;;2.53;;
75963;SDS011;65820;44.726;37.764;2023-02-08T07:40:58;6.00;;;2.22;;
75963;SDS011;65820;44.726;37.764;2023-02-08T07:43:07;5.07;;;1.80;;
75963;SDS011;65820;44.726;37.764;2023-02-08T07:44:18;5.13;;;1.88;;
75963;SDS011;65820;44.726;37.764;2023-02-08T07:45:19;4.40;;;1.90;;
75963;SDS011;65820;44.726;37.764;2023-02-08T07:46:23;4.90;;;2.03;;
75963;SDS011;65820;44.726;37.764;2023-02-08T07:47:24;5.70;;;2.30;;
75963;SDS011;65820;44.726;37.764;2023-02-08T07:48:26;7.60;;;2.25;;
75963;SDS011;65820;44.726;37.764;2023-02-08T07:49:27;7.00;;;2.40;;
75963;SDS011;65820;44.726;37.764;2023-02-08T07:50:29;5.97;;;2.50;;
75963;SDS011;65820;44.726;37.764;2023-02-08T07:51:30;6.80;;;2.60;;
75963;SDS011;65820;44.726;37.764;2023-02-08T07:52:32;5.32;;;1.98;;
75963;SDS011;65820;44.726;37.764;2023-02-08T07:53:33;5.82;;;2.13;;
75963;SDS011;65820;44.726;37.764;2023-02-08T07:54:35;7.38;;;2.45;;
75963;SDS011;65820;44.726;37.764;2023-02-08T07:55:36;5.88;;;2.30;;
75963;SDS011;65820;44.726;37.764;2023-02-08T07:56:38;7.47;;;2.50;;
75963;SDS011;65820;44.726;37.764;2023-02-08T07:57:42;7.57;;;2.33;;
75963;SDS011;65820;44.726;37.764;2023-02-08T07:59:34;6.90;;;2.38;;
75963;SDS011;65820;44.726;37.764;2023-02-08T08:00:36;7.15;;;2.20;;
75963;SDS011;65820;44.726;37.764;2023-02-08T08:01:50;5.18;;;2.40;;
75963;SDS011;65820;44.726;37.764;2023-02-08T08:03:57;4.90;;;1.77;;
75963;SDS011;65820;44.726;37.764;2023-02-08T08:04:59;5.18;;;2.28;;
75963;SDS011;65820;44.726;37.764;2023-02-08T08:06:00;4.00;;;1.50;;
75963;SDS011;65820;44.726;37.764;2023-02-08T08:07:04;5.63;;;2.10;;
75963;SDS011;65820;44.726;37.764;2023-02-08T08:08:05;6.60;;;1.70;;
75963;SDS011;65820;44.726;37.764;2023-02-08T08:11:26;4.88;;;1.75;;
75963;SDS011;65820;44.726;37.764;2023-02-08T08:12:28;5.68;;;1.92;;
75963;SDS011;65820;44.726;37.764;2023-02-08T08:13:29;7.03;;;1.83;;
75963;SDS011;65820;44.726;37.764;2023-02-08T08:14:31;4.88;;;1.80;;
75963;SDS011;65820;44.726;37.764;2023-02-08T08:15:32;5.22;;;2.00;;
75963;SDS011;65820;44.726;37.764;2023-02-08T08:16:34;5.20;;;1.63;;
75963;SDS011;65820;44.726;37.764;2023-02-08T08:17:35;5.60;;;1.73;;
75963;SDS011;65820;44.726;37.764;2023-02-08T08:18:37;4.35;;;1.45;;
75963;SDS011;65820;44.726;37.764;2023-02-08T08:19:38;4.18;;;1.70;;
75963;SDS011;65820;44.726;37.764;2023-02-08T08:20:40;3.60;;;1.60;;
75963;SDS011;65820;44.726;37.764;2023-02-08T08:21:41;3.78;;;1.60;;
75963;SDS011;65820;44.726;37.764;2023-02-08T08:22:43;4.63;;;1.52;;
75963;SDS011;65820;44.726;37.764;2023-02-08T08:23:44;5.65;;;2.20;;
75963;SDS011;65820;44.726;37.764;2023-02-08T08:24:48;4.30;;;1.85;;
75963;SDS011;65820;44.726;37.764;2023-02-08T08:25:49;4.55;;;1.50;;